Time;durP1;ratioP1;P1;durP2;ratioP2;P2;SDS_P1;SDS_P2;PMS_P1;PMS_P2;Temp;Humidity;BMP_temperature;BMP_pressure;BME280_temperature;BME280_humidity;BME280_pressure;Samples;Min_cycle;Max_cycle;Signal;HPM_P1;HPM_P2
2022/04/02 00:00:24;;;;;;;6.93;1.37;;;2.40;99.90;;;;;;5037449;28;21903;-72
2022/04/02 00:02:52;;;;;;;2.70;2.40;;;2.40;99.90;;;;;;5036974;28;20461;-73
2022/04/02 00:05:20;;;;;;;3.27;1.33;;;2.40;99.90;;;;;;5037901;28;20418;-72
2022/04/02 00:07:50;;;;;;;2.53;1.80;;;2.40;99.90;;;;;;5032884;28;20966;-73
2022/04/02 00:10:22;;;;;;;6.60;4.57;;;2.50;99.90;;;;;;5036106;28;20627;-73
2022/04/02 00:12:53;;;;;;;1.53;1.43;;;2.50;99.90;;;;;;5039374;28;20863;-72
2022/04/02 00:15:21;;;;;;;4.03;2.33;;;2.50;99.90;;;;;;5035636;28;20941;-73
2022/04/02 00:17:51;;;;;;;3.97;1.70;;;2.50;99.90;;;;;;5029701;28;20504;-72
2022/04/02 00:20:26;;;;;;;3.10;1.70;;;2.50;99.90;;;;;;5035824;28;20460;-72
2022/04/02 00:25:44;;;;;;;1.73;1.63;;;2.50;99.90;;;;;;5025598;28;20700;-72
2022/04/02 00:28:14;;;;;;;1.50;1.40;;;2.50;99.90;;;;;;5036474;28;20797;-73
2022/04/02 00:30:49;;;;;;;1.83;1.40;;;2.70;99.90;;;;;;5031275;28;20470;-72
2022/04/02 00:33:15;;;;;;;1.40;1.30;;;2.80;99.90;;;;;;5031482;28;20534;-72
2022/04/02 00:35:50;;;;;;;3.63;1.60;;;2.70;99.90;;;;;;5042441;28;20438;-72
2022/04/02 00:38:17;;;;;;;1.10;1.00;;;2.60;99.90;;;;;;5040509;28;20467;-73
2022/04/02 00:40:48;;;;;;;2.43;1.80;;;2.60;99.90;;;;;;5035129;28;20510;-72
2022/04/02 00:43:23;;;;;;;1.87;1.67;;;2.60;99.90;;;;;;5025877;28;21026;-72
2022/04/02 00:45:56;;;;;;;3.57;2.13;;;2.50;99.90;;;;;;5029872;28;20434;-73
2022/04/02 00:48:26;;;;;;;2.90;1.10;;;2.40;99.90;;;;;;5030563;28;20438;-73
2022/04/02 00:51:02;;;;;;;1.93;1.00;;;2.50;99.90;;;;;;5038332;28;20457;-73
2022/04/02 00:53:33;;;;;;;2.40;1.13;;;2.50;99.90;;;;;;5030488;28;20463;-73
2022/04/02 00:56:06;;;;;;;1.50;1.40;;;2.60;99.90;;;;;;5025813;28;20465;-73
2022/04/02 00:58:39;;;;;;;1.53;1.00;;;2.60;99.90;;;;;;5030358;28;20457;-73
2022/04/02 01:01:11;;;;;;;1.90;1.80;;;2.60;99.90;;;;;;5021975;28;20457;-72
2022/04/02 01:03:46;;;;;;;1.67;1.30;;;2.50;99.90;;;;;;5033109;28;20474;-74
2022/04/02 01:06:29;;;;;;;1.83;1.73;;;2.50;99.90;;;;;;5031186;28;20550;-73
2022/04/02 01:09:06;;;;;;;1.23;0.80;;;2.60;99.90;;;;;;5028176;28;20485;-73
2022/04/02 01:11:41;;;;;;;3.30;1.17;;;2.70;99.90;;;;;;5023291;28;20902;-73
2022/04/02 01:14:13;;;;;;;2.23;1.40;;;2.70;99.90;;;;;;5026776;28;20432;-73
2022/04/02 01:16:44;;;;;;;1.20;1.10;;;2.60;99.90;;;;;;5029696;28;20438;-73
2022/04/02 01:19:11;;;;;;;3.00;1.60;;;2.40;99.90;;;;;;5032344;28;20542;-73
2022/04/02 01:21:38;;;;;;;1.37;1.27;;;2.50;99.90;;;;;;5030584;28;20455;-71
2022/04/02 01:24:07;;;;;;;1.63;0.90;;;2.60;99.90;;;;;;5032057;28;20526;-72
2022/04/02 01:26:38;;;;;;;1.67;1.00;;;2.60;99.90;;;;;;5031417;28;20831;-73
2022/04/02 01:29:07;;;;;;;1.20;1.00;;;2.40;99.90;;;;;;5031970;28;20479;-73
2022/04/02 01:31:34;;;;;;;3.27;1.67;;;2.40;99.90;;;;;;5027641;28;20431;-72
2022/04/02 01:34:02;;;;;;;1.60;1.10;;;2.40;99.90;;;;;;5032459;28;20435;-74
2022/04/02 01:36:29;;;;;;;3.27;1.63;;;2.40;99.90;;;;;;5030813;28;21744;-73
2022/04/02 01:38:56;;;;;;;2.33;1.40;;;2.40;99.90;;;;;;5020761;28;20480;-72
2022/04/02 01:41:26;;;;;;;1.13;1.03;;;2.40;99.90;;;;;;5019592;28;20464;-73
2022/04/02 01:43:59;;;;;;;1.27;1.17;;;2.40;99.90;;;;;;5024437;28;20513;-73
2022/04/02 01:46:29;;;;;;;2.13;1.10;;;2.50;99.90;;;;;;5032801;28;20459;-73
2022/04/02 01:49:02;;;;;;;1.10;0.93;;;2.40;99.90;;;;;;5035670;28;20475;-72
2022/04/02 01:51:40;;;;;;;1.43;1.33;;;2.40;99.90;;;;;;5034804;28;20433;-73
2022/04/02 01:54:07;;;;;;;1.27;1.17;;;2.40;99.90;;;;;;5031284;28;20426;-72
2022/04/02 01:56:38;;;;;;;3.53;1.73;;;2.40;99.90;;;;;;5037657;28;20445;-73
2022/04/02 01:59:05;;;;;;;1.00;0.90;;;2.40;99.90;;;;;;5030270;28;20479;-72
2022/04/02 02:01:33;;;;;;;3.07;1.17;;;2.40;99.90;;;;;;5017246;28;20464;-72
2022/04/02 02:03:59;;;;;;;1.40;1.10;;;2.40;99.90;;;;;;5034978;23;20488;-73
2022/04/02 02:06:27;;;;;;;1.67;1.27;;;2.40;99.90;;;;;;5046849;28;20494;-73
2022/04/02 02:08:54;;;;;;;1.10;1.00;;;2.40;99.90;;;;;;5054267;28;20463;-73
2022/04/02 02:11:21;;;;;;;1.63;1.53;;;2.40;99.90;;;;;;5052442;28;20513;-73
2022/04/02 02:13:51;;;;;;;1.20;1.03;;;2.40;99.90;;;;;;5052656;28;20507;-73
2022/04/02 02:16:18;;;;;;;2.03;1.40;;;2.40;99.90;;;;;;5046549;28;20528;-72
2022/04/02 02:18:44;;;;;;;4.70;1.80;;;2.50;99.90;;;;;;5049875;28;20463;-72
2022/04/02 02:21:11;;;;;;;1.90;1.70;;;2.40;99.90;;;;;;5050568;28;20499;-72
2022/04/02 02:23:38;;;;;;;1.40;1.07;;;2.30;99.90;;;;;;5047989;28;20863;-73
2022/04/02 02:26:04;;;;;;;2.13;1.70;;;2.40;99.90;;;;;;5050714;28;20454;-72
2022/04/02 02:28:32;;;;;;;1.20;0.90;;;2.40;99.90;;;;;;5052675;28;20503;-72
2022/04/02 02:31:00;;;;;;;1.80;1.70;;;2.40;99.90;;;;;;5054685;28;20489;-73
2022/04/02 02:36:11;;;;;;;1.47;1.00;;;2.40;99.90;;;;;;5056153;28;20454;-73
2022/04/02 02:38:37;;;;;;;1.70;1.07;;;2.40;99.90;;;;;;5053913;28;20513;-73
2022/04/02 02:41:04;;;;;;;2.80;0.93;;;2.40;99.90;;;;;;5050546;28;20874;-72
2022/04/02 02:43:31;;;;;;;1.63;1.37;;;2.30;99.90;;;;;;5047803;28;20478;-73
2022/04/02 02:45:58;;;;;;;1.33;1.23;;;2.30;99.90;;;;;;5054447;28;20494;-73
2022/04/02 02:48:26;;;;;;;2.60;1.10;;;2.40;99.90;;;;;;5051178;28;20455;-73
2022/04/02 02:50:53;;;;;;;1.50;1.10;;;2.30;99.90;;;;;;5052330;28;21025;-72
2022/04/02 02:53:20;;;;;;;2.37;1.13;;;2.40;99.90;;;;;;5057642;28;20552;-73
2022/04/02 02:55:48;;;;;;;3.50;1.50;;;2.40;99.90;;;;;;5049645;28;20459;-73
2022/04/02 02:58:15;;;;;;;2.93;1.00;;;2.40;99.90;;;;;;5052327;28;20445;-73
2022/04/02 03:00:42;;;;;;;1.97;1.10;;;2.50;99.90;;;;;;5049889;28;20493;-72
2022/04/02 03:03:09;;;;;;;0.90;0.70;;;2.50;99.90;;;;;;5051149;28;20510;-72
2022/04/02 03:05:37;;;;;;;1.00;0.90;;;2.50;99.90;;;;;;5048961;28;20546;-73
2022/04/02 03:08:04;;;;;;;2.17;1.83;;;2.40;99.90;;;;;;5050390;28;20437;-73
2022/04/02 03:10:31;;;;;;;1.43;1.30;;;2.40;99.90;;;;;;5047211;28;20543;-72
2022/04/02 03:12:59;;;;;;;1.10;0.80;;;2.40;99.90;;;;;;5050347;28;20529;-72
2022/04/02 03:15:26;;;;;;;1.00;0.90;;;2.30;99.90;;;;;;5051499;28;20922;-72
2022/04/02 03:17:54;;;;;;;13.43;1.93;;;2.30;99.90;;;;;;5043999;28;20567;-72
2022/04/02 03:20:22;;;;;;;2.10;1.53;;;2.40;99.90;;;;;;5048108;28;20930;-73
2022/04/02 03:22:51;;;;;;;1.50;1.07;;;2.40;99.90;;;;;;5047318;28;20497;-72
2022/04/02 03:25:20;;;;;;;1.50;1.40;;;2.20;99.90;;;;;;5050964;28;20451;-72
2022/04/02 03:27:48;;;;;;;2.77;1.43;;;2.20;99.90;;;;;;5053048;28;20514;-72
2022/04/02 03:30:18;;;;;;;1.20;1.00;;;2.10;99.90;;;;;;5053222;28;20482;-72
2022/04/02 03:32:46;;;;;;;1.13;0.93;;;2.30;99.90;;;;;;5054440;28;20443;-71
2022/04/02 03:35:14;;;;;;;0.90;0.70;;;2.20;99.90;;;;;;5049231;28;20459;-73
2022/04/02 03:37:43;;;;;;;1.37;0.90;;;2.30;99.90;;;;;;5049963;28;20454;-71
2022/04/02 03:40:14;;;;;;;1.20;0.87;;;2.20;99.90;;;;;;5052027;28;20917;-73
2022/04/02 03:42:42;;;;;;;1.30;1.13;;;2.20;99.90;;;;;;5049049;28;20464;-72
2022/04/02 03:45:10;;;;;;;1.37;1.27;;;2.10;99.90;;;;;;5054054;28;20462;-72
2022/04/02 03:47:36;;;;;;;3.77;1.73;;;2.20;99.90;;;;;;5044051;28;20483;-71
2022/04/02 03:50:04;;;;;;;1.40;1.23;;;2.20;99.90;;;;;;5050976;28;20471;-74
2022/04/02 03:52:31;;;;;;;3.00;1.60;;;2.20;99.90;;;;;;5052996;28;20451;-71
2022/04/02 03:54:58;;;;;;;1.63;0.90;;;2.30;99.90;;;;;;5045966;28;21321;-72
2022/04/02 03:57:26;;;;;;;1.20;1.10;;;2.30;99.90;;;;;;5050304;28;20470;-72
2022/04/02 03:59:52;;;;;;;0.90;0.70;;;2.20;99.90;;;;;;5052674;28;21360;-72
2022/04/02 04:02:21;;;;;;;1.57;1.20;;;2.20;99.90;;;;;;5052019;28;20433;-72
2022/04/02 04:04:47;;;;;;;1.20;0.80;;;2.10;99.90;;;;;;5050419;28;20632;-72
2022/04/02 04:07:14;;;;;;;1.50;1.30;;;2.10;99.90;;;;;;5045073;28;20492;-73
2022/04/02 04:09:41;;;;;;;2.40;1.17;;;2.10;99.90;;;;;;5054777;28;20555;-73
2022/04/02 04:12:10;;;;;;;3.77;1.23;;;2.10;99.90;;;;;;5048211;28;20433;-73
2022/04/02 04:14:38;;;;;;;1.70;1.17;;;2.20;99.90;;;;;;5049664;28;20526;-73
2022/04/02 04:17:05;;;;;;;1.20;0.97;;;2.20;99.90;;;;;;5044736;28;20493;-71
2022/04/02 04:19:32;;;;;;;2.33;1.17;;;2.20;99.90;;;;;;5046121;28;20464;-72
2022/04/02 04:21:59;;;;;;;1.50;1.10;;;2.20;99.90;;;;;;5053467;28;20462;-72
2022/04/02 04:24:26;;;;;;;1.40;0.97;;;2.20;99.90;;;;;;5050345;28;20605;-72
2022/04/02 04:26:53;;;;;;;1.77;1.30;;;2.40;99.90;;;;;;5050968;28;20543;-71
2022/04/02 04:29:20;;;;;;;1.00;0.80;;;2.40;99.90;;;;;;5047083;28;21046;-73
2022/04/02 04:31:48;;;;;;;6.13;1.10;;;2.40;99.90;;;;;;5046448;28;20576;-73
2022/04/02 04:34:17;;;;;;;1.80;1.10;;;2.40;99.90;;;;;;5049911;28;21186;-73
2022/04/02 04:36:43;;;;;;;1.00;0.90;;;2.30;99.90;;;;;;5057786;28;20455;-72
2022/04/02 04:39:10;;;;;;;2.87;1.10;;;2.20;99.90;;;;;;5055755;28;20451;-73
2022/04/02 04:41:38;;;;;;;0.90;0.80;;;2.20;99.90;;;;;;5053999;28;20469;-73
2022/04/02 04:44:05;;;;;;;1.30;1.20;;;2.20;99.90;;;;;;5046495;28;20470;-72
2022/04/02 04:46:32;;;;;;;2.27;1.00;;;2.20;99.90;;;;;;5050044;28;20470;-71
2022/04/02 04:49:00;;;;;;;1.70;1.60;;;2.20;99.90;;;;;;5044979;28;20467;-74
2022/04/02 04:51:28;;;;;;;1.10;0.90;;;2.30;99.90;;;;;;5048042;28;20452;-73
2022/04/02 04:53:55;;;;;;;1.10;0.90;;;2.20;99.90;;;;;;5050788;28;20484;-72
2022/04/02 04:56:22;;;;;;;1.30;1.20;;;2.20;99.90;;;;;;5038495;28;20458;-73
2022/04/02 04:58:48;;;;;;;1.43;1.00;;;2.20;99.90;;;;;;5049553;28;20430;-73
2022/04/02 05:01:15;;;;;;;2.33;1.00;;;2.20;99.90;;;;;;5050389;28;20429;-73
2022/04/02 05:03:42;;;;;;;1.70;1.30;;;2.30;99.90;;;;;;5042685;28;20576;-73
2022/04/02 05:06:12;;;;;;;2.40;1.57;;;2.10;99.90;;;;;;5051656;28;20459;-73
2022/04/02 05:08:39;;;;;;;1.70;1.40;;;2.30;99.90;;;;;;5056087;28;20436;-74
2022/04/02 05:11:05;;;;;;;1.50;1.20;;;2.30;99.90;;;;;;5049266;28;20460;-73
2022/04/02 05:13:32;;;;;;;2.13;1.60;;;2.20;99.90;;;;;;5055532;28;21019;-73
2022/04/02 05:15:59;;;;;;;1.00;0.90;;;2.10;99.90;;;;;;5050519;28;20433;-73
2022/04/02 05:18:27;;;;;;;1.67;1.43;;;2.20;99.90;;;;;;5056270;28;20426;-73
2022/04/02 05:20:53;;;;;;;1.00;0.83;;;2.30;99.90;;;;;;5062377;28;20479;-74
2022/04/02 05:23:21;;;;;;;2.33;1.13;;;2.20;99.90;;;;;;5062143;28;20470;-73
2022/04/02 05:25:48;;;;;;;1.30;1.20;;;2.30;99.90;;;;;;5059477;28;20440;-74
2022/04/02 05:28:14;;;;;;;1.00;0.90;;;2.30;99.90;;;;;;5056944;28;20771;-73
2022/04/02 05:30:41;;;;;;;1.83;1.63;;;2.30;99.90;;;;;;5059258;28;20483;-74
2022/04/02 05:33:08;;;;;;;4.30;1.43;;;2.30;99.90;;;;;;5056867;28;21128;-74
2022/04/02 05:35:35;;;;;;;1.27;0.83;;;2.30;99.90;;;;;;5061368;28;20423;-73
2022/04/02 05:38:02;;;;;;;3.30;1.43;;;2.30;99.90;;;;;;5053678;28;21311;-73
2022/04/02 05:40:30;;;;;;;1.43;1.10;;;2.40;99.90;;;;;;5058115;28;21076;-73
2022/04/02 05:42:57;;;;;;;2.00;1.13;;;2.30;99.90;;;;;;5056074;28;20478;-74
2022/04/02 05:45:24;;;;;;;3.53;1.60;;;2.20;99.90;;;;;;5046500;28;21495;-74
2022/04/02 05:47:52;;;;;;;1.30;1.10;;;2.30;99.90;;;;;;5038961;28;21089;-72
2022/04/02 05:50:21;;;;;;;3.20;1.90;;;2.40;99.90;;;;;;5062266;28;21010;-72
2022/04/02 05:52:49;;;;;;;1.73;1.63;;;2.40;99.90;;;;;;5064607;28;21139;-73
2022/04/02 05:55:17;;;;;;;3.93;1.00;;;2.60;99.90;;;;;;5063287;28;20521;-73
2022/04/02 05:57:46;;;;;;;1.00;0.83;;;2.50;99.90;;;;;;5062945;28;20529;-72
2022/04/02 06:00:15;;;;;;;2.17;2.00;;;2.50;99.90;;;;;;5064889;28;20827;-72
2022/04/02 06:02:43;;;;;;;2.10;1.77;;;2.50;99.90;;;;;;5057606;28;20430;-73
2022/04/02 06:05:13;;;;;;;9.37;1.33;;;2.60;99.90;;;;;;5058678;28;20502;-73
2022/04/02 06:07:40;;;;;;;1.47;1.37;;;2.60;99.90;;;;;;5060130;28;20505;-72
2022/04/02 06:10:09;;;;;;;2.73;1.67;;;2.50;99.90;;;;;;5050304;28;20512;-73
2022/04/02 06:12:36;;;;;;;4.67;1.57;;;2.50;99.90;;;;;;5054378;28;20426;-73
2022/04/02 06:15:05;;;;;;;1.00;0.87;;;2.50;99.90;;;;;;5055179;28;21060;-73
2022/04/02 06:17:31;;;;;;;1.53;1.07;;;2.50;99.90;;;;;;5054439;28;20426;-74
2022/04/02 06:19:58;;;;;;;1.43;1.10;;;2.50;99.90;;;;;;5057260;28;20471;-73
2022/04/02 06:22:25;;;;;;;1.60;1.43;;;2.50;99.90;;;;;;5058955;28;20454;-73
2022/04/02 06:24:51;;;;;;;1.30;1.20;;;2.50;99.90;;;;;;5052074;28;21062;-73
2022/04/02 06:27:18;;;;;;;1.10;1.00;;;2.70;99.90;;;;;;5058023;28;20487;-73
2022/04/02 06:29:44;;;;;;;1.53;1.37;;;2.80;99.90;;;;;;5058284;28;20472;-73
2022/04/02 06:32:13;;;;;;;5.90;2.47;;;2.70;99.90;;;;;;5049789;28;20921;-73
2022/04/02 06:34:40;;;;;;;1.87;1.40;;;2.70;99.90;;;;;;5056431;28;20490;-73
2022/04/02 06:37:07;;;;;;;5.37;1.00;;;2.80;99.90;;;;;;5051114;28;21930;-72
2022/04/02 06:39:34;;;;;;;0.93;0.80;;;2.80;99.90;;;;;;5058423;28;20511;-73
2022/04/02 06:42:00;;;;;;;1.40;1.00;;;2.90;99.90;;;;;;5053353;28;20455;-73
2022/04/02 06:44:29;;;;;;;5.50;1.90;;;2.90;99.90;;;;;;5049678;28;20480;-73
2022/04/02 06:46:56;;;;;;;1.30;1.20;;;3.00;99.90;;;;;;5054865;28;20425;-73
2022/04/02 06:49:24;;;;;;;1.70;1.20;;;3.00;99.90;;;;;;5057125;28;20458;-72
2022/04/02 06:51:51;;;;;;;2.60;1.80;;;3.00;99.90;;;;;;5059863;28;20566;-72
2022/04/02 06:54:17;;;;;;;2.30;1.40;;;2.80;99.90;;;;;;5043912;28;20454;-73
2022/04/02 06:56:45;;;;;;;2.03;1.73;;;3.00;99.90;;;;;;5051518;28;20437;-72
2022/04/02 06:59:12;;;;;;;1.80;1.40;;;3.00;99.90;;;;;;5058684;28;20995;-72
2022/04/02 07:01:41;;;;;;;1.33;1.20;;;3.20;99.90;;;;;;5056787;28;20487;-75
2022/04/02 07:04:07;;;;;;;1.57;1.33;;;3.30;99.90;;;;;;5053356;28;20461;-72
2022/04/02 07:06:37;;;;;;;1.90;1.00;;;3.30;99.90;;;;;;5050160;28;20465;-73
2022/04/02 07:09:05;;;;;;;2.20;1.40;;;3.20;99.90;;;;;;5057587;28;20811;-72
2022/04/02 07:11:31;;;;;;;1.67;1.43;;;3.20;99.90;;;;;;5052901;28;20830;-73
2022/04/02 07:13:59;;;;;;;2.23;1.67;;;3.40;99.90;;;;;;5047353;28;20544;-73
2022/04/02 07:16:28;;;;;;;1.60;1.50;;;3.40;99.90;;;;;;5047601;28;20673;-72
2022/04/02 07:18:56;;;;;;;1.70;1.60;;;3.40;99.90;;;;;;5053432;28;20974;-73
2022/04/02 07:21:26;;;;;;;1.70;1.20;;;3.40;99.90;;;;;;5049987;28;20898;-73
2022/04/02 07:23:54;;;;;;;7.30;1.80;;;3.40;99.90;;;;;;5052615;28;20847;-73
2022/04/02 07:26:21;;;;;;;3.03;1.60;;;3.50;99.90;;;;;;5056095;28;20447;-73
2022/04/02 07:28:49;;;;;;;1.97;1.80;;;3.60;99.90;;;;;;5057666;28;20454;-73
2022/04/02 07:31:15;;;;;;;3.33;1.40;;;3.50;99.90;;;;;;5053408;28;20482;-73
2022/04/02 07:33:44;;;;;;;1.60;1.27;;;3.40;99.90;;;;;;5045979;28;20483;-72
2022/04/02 07:39:42;;;;;;;1.23;1.13;;;3.40;99.90;;;;;;5062137;28;20460;-73
2022/04/02 07:42:13;;;;;;;2.53;1.20;;;3.50;99.90;;;;;;5042024;28;20840;-74
2022/04/02 07:44:52;;;;;;;1.27;0.80;;;3.60;99.90;;;;;;5049081;28;21188;-72
2022/04/02 07:47:24;;;;;;;3.80;2.00;;;3.50;99.90;;;;;;5054399;28;20429;-72
2022/04/02 07:49:59;;;;;;;1.90;1.70;;;3.50;99.90;;;;;;5054269;28;20454;-73
2022/04/02 07:52:25;;;;;;;1.30;1.03;;;3.60;99.90;;;;;;5046360;28;20507;-73
2022/04/02 07:54:57;;;;;;;2.20;1.73;;;3.60;99.90;;;;;;5045659;28;21039;-73
2022/04/02 07:57:28;;;;;;;9.13;1.47;;;3.60;99.90;;;;;;5052847;28;20462;-73
2022/04/02 08:00:03;;;;;;;3.60;1.60;;;3.70;99.90;;;;;;5063876;28;21041;-73
2022/04/02 08:02:38;;;;;;;3.80;2.17;;;3.80;99.90;;;;;;5056131;28;20557;-73
2022/04/02 08:05:07;;;;;;;1.40;1.30;;;3.90;99.90;;;;;;5053119;28;20589;-72
2022/04/02 08:07:36;;;;;;;2.00;1.40;;;4.10;99.90;;;;;;5048948;28;20973;-73
2022/04/02 08:10:07;;;;;;;1.17;1.07;;;4.00;99.90;;;;;;5054908;28;20445;-73
2022/04/02 08:12:36;;;;;;;1.00;0.90;;;4.20;99.90;;;;;;5055640;28;20454;-73
2022/04/02 08:15:04;;;;;;;1.10;0.93;;;4.30;99.90;;;;;;5057616;28;21019;-73
2022/04/02 08:17:32;;;;;;;2.30;1.83;;;4.20;99.90;;;;;;5051387;28;20429;-73
2022/04/02 08:20:00;;;;;;;3.00;2.20;;;4.30;99.90;;;;;;5055629;28;20505;-72
2022/04/02 08:22:27;;;;;;;1.30;1.00;;;4.50;99.90;;;;;;5054361;28;20552;-73
2022/04/02 08:24:54;;;;;;;1.73;0.90;;;4.70;99.90;;;;;;5055820;28;20548;-72
2022/04/02 08:27:33;;;;;;;4.17;1.50;;;4.70;99.90;;;;;;5049841;28;20417;-75
2022/04/02 08:30:07;;;;;;;1.60;1.40;;;4.50;99.90;;;;;;5057748;28;20491;-73
2022/04/02 08:32:55;;;;;;;3.37;2.20;;;4.70;99.90;;;;;;5041248;28;20461;-73
2022/04/02 08:35:26;;;;;;;1.40;1.30;;;4.70;99.90;;;;;;5030377;28;20458;-73
2022/04/02 08:38:17;;;;;;;1.93;1.33;;;4.60;99.90;;;;;;5061197;28;20437;-74
2022/04/02 08:41:35;;;;;;;4.67;1.73;;;4.70;99.90;;;;;;5059240;28;20414;-74
2022/04/02 08:44:28;;;;;;;1.10;1.00;;;4.90;99.90;;;;;;5066535;28;20436;-74
2022/04/02 08:47:11;;;;;;;2.87;1.87;;;4.90;99.90;;;;;;5062062;28;20437;-74
2022/04/02 08:49:41;;;;;;;1.03;0.87;;;4.90;99.90;;;;;;5064066;28;20471;-74
2022/04/02 08:52:22;;;;;;;1.77;1.50;;;5.30;99.90;;;;;;5062166;28;20890;-73
2022/04/02 08:55:08;;;;;;;1.80;1.53;;;5.30;99.90;;;;;;5059854;28;20452;-74
2022/04/02 08:58:03;;;;;;;1.30;1.13;;;5.60;99.90;;;;;;5064811;28;20412;-72
2022/04/02 09:00:39;;;;;;;1.97;1.47;;;5.80;99.90;;;;;;5064245;28;20409;-73
2022/04/02 09:03:25;;;;;;;1.40;1.07;;;6.10;99.90;;;;;;5062963;28;20436;-73
2022/04/02 09:06:12;;;;;;;2.50;1.27;;;6.20;99.90;;;;;;5057298;28;20571;-73
2022/04/02 09:09:02;;;;;;;1.67;1.50;;;5.70;99.90;;;;;;5063334;28;20480;-71
2022/04/02 09:11:50;;;;;;;2.10;1.80;;;5.80;99.90;;;;;;5060790;28;20441;-74
2022/04/02 09:14:32;;;;;;;2.60;1.50;;;5.90;99.90;;;;;;5060950;28;20482;-75
2022/04/02 09:17:14;;;;;;;1.20;0.93;;;6.00;99.90;;;;;;5063698;28;20459;-73
2022/04/02 09:19:53;;;;;;;2.60;1.93;;;6.50;99.90;;;;;;5062210;28;20437;-74
2022/04/02 09:22:33;;;;;;;2.33;1.77;;;7.10;99.90;;;;;;5063634;28;20454;-72
2022/04/02 09:25:41;;;;;;;2.27;1.10;;;7.30;99.90;;;;;;5066665;28;20429;-73
2022/04/02 09:28:15;;;;;;;3.90;2.10;;;7.50;99.90;;;;;;5065114;28;21046;-73
2022/04/02 09:31:34;;;;;;;2.03;1.67;;;7.50;99.90;;;;;;5064837;28;20438;-73
2022/04/02 09:34:42;;;;;;;2.27;1.27;;;7.70;99.90;;;;;;4983903;28;20450;-74
2022/04/02 09:37:22;;;;;;;1.83;1.47;;;6.90;99.90;;;;;;4981673;28;20477;-74
2022/04/02 09:39:59;;;;;;;2.80;1.67;;;7.30;99.90;;;;;;5046488;28;20458;-73
2022/04/02 09:42:35;;;;;;;1.90;1.70;;;7.00;99.90;;;;;;5065405;28;20455;-76
2022/04/02 09:45:05;;;;;;;1.30;1.10;;;7.10;99.90;;;;;;5064691;28;20477;-74
2022/04/02 09:48:02;;;;;;;3.70;1.97;;;7.50;99.90;;;;;;5064252;28;20439;-74
2022/04/02 09:50:31;;;;;;;4.47;4.07;;;7.80;99.90;;;;;;5067224;28;20425;-74
2022/04/02 09:53:09;;;;;;;2.37;1.60;;;8.00;99.90;;;;;;5064073;28;20572;-74
2022/04/02 09:55:44;;;;;;;2.10;1.50;;;7.70;99.90;;;;;;5066004;28;20438;-74
2022/04/02 09:58:41;;;;;;;4.07;2.63;;;7.70;99.90;;;;;;5064398;28;20454;-74
2022/04/02 10:01:09;;;;;;;1.70;1.00;;;7.50;99.90;;;;;;5061875;28;20475;-74
2022/04/02 10:03:46;;;;;;;1.63;1.40;;;7.30;99.90;;;;;;5063260;28;20471;-74
2022/04/02 10:06:24;;;;;;;1.63;1.53;;;7.10;99.90;;;;;;5061502;28;20439;-75
2022/04/02 10:09:10;;;;;;;1.70;1.23;;;6.50;99.90;;;;;;5063797;28;20450;-74
2022/04/02 10:11:43;;;;;;;2.90;1.83;;;6.10;99.90;;;;;;5061008;28;20449;-74
2022/04/02 10:14:11;;;;;;;2.30;1.93;;;6.20;99.90;;;;;;5065199;28;20853;-74
2022/04/02 10:16:40;;;;;;;2.27;2.00;;;6.30;99.90;;;;;;5065924;28;20425;-73
2022/04/02 10:19:10;;;;;;;3.07;2.47;;;6.90;99.90;;;;;;5065705;28;20531;-72
2022/04/02 10:21:39;;;;;;;2.73;2.10;;;7.60;99.90;;;;;;5066362;28;20438;-74
2022/04/02 10:24:21;;;;;;;2.73;1.80;;;7.30;99.90;;;;;;5066202;28;20458;-74
2022/04/02 10:26:53;;;;;;;3.13;2.27;;;7.00;99.90;;;;;;5064909;28;20478;-73
2022/04/02 10:29:43;;;;;;;1.57;1.17;;;6.90;99.90;;;;;;5063846;28;20951;-73
2022/04/02 10:32:46;;;;;;;2.10;1.40;;;7.20;99.90;;;;;;5063954;28;20464;-74
2022/04/02 10:35:14;;;;;;;9.60;2.13;;;7.60;99.90;;;;;;5037236;28;20550;-74
2022/04/02 10:37:44;;;;;;;2.40;1.90;;;7.40;99.90;;;;;;5059749;28;20489;-74
2022/04/02 10:40:12;;;;;;;4.80;1.50;;;7.50;99.90;;;;;;5061931;28;20534;-75
2022/04/02 10:42:40;;;;;;;1.47;1.27;;;7.40;99.90;;;;;;5060351;28;20464;-74
2022/04/02 10:45:10;;;;;;;2.90;1.70;;;7.00;99.90;;;;;;5064208;28;20544;-74
2022/04/02 10:47:42;;;;;;;1.87;1.60;;;6.30;99.90;;;;;;5067995;22;20477;-72
2022/04/02 10:50:10;;;;;;;4.53;1.60;;;6.20;99.90;;;;;;5039765;28;20963;-72
2022/04/02 10:52:38;;;;;;;2.37;1.97;;;6.20;99.90;;;;;;5043670;28;20626;-73
2022/04/02 10:55:06;;;;;;;1.83;1.30;;;6.10;99.90;;;;;;5041050;28;20551;-73
2022/04/02 10:57:34;;;;;;;2.80;1.30;;;6.00;99.90;;;;;;5044167;28;20442;-72
2022/04/02 11:00:04;;;;;;;4.77;2.07;;;6.00;99.90;;;;;;5029076;28;20465;-72
2022/04/02 11:02:40;;;;;;;1.73;1.63;;;5.50;99.90;;;;;;5022474;28;20445;-73
2022/04/02 11:05:23;;;;;;;1.50;1.40;;;5.80;99.90;;;;;;5031249;28;20430;-73
2022/04/02 11:07:51;;;;;;;1.90;1.63;;;6.40;99.90;;;;;;5027041;28;23095;-72
2022/04/02 11:10:23;;;;;;;3.73;1.73;;;6.80;99.90;;;;;;5029715;28;20434;-73
2022/04/02 11:13:00;;;;;;;2.90;1.80;;;6.50;99.90;;;;;;5024745;28;20460;-73
2022/04/02 11:15:28;;;;;;;1.70;1.57;;;6.20;99.90;;;;;;5029839;28;20504;-74
2022/04/02 11:17:57;;;;;;;2.63;1.80;;;5.80;99.90;;;;;;5027318;28;20925;-72
2022/04/02 11:20:28;;;;;;;1.90;1.70;;;5.60;99.90;;;;;;5028303;28;20470;-71
2022/04/02 11:23:15;;;;;;;3.03;1.83;;;5.50;99.90;;;;;;5036780;28;20506;-72
2022/04/02 11:25:49;;;;;;;3.47;2.30;;;5.60;99.90;;;;;;5027385;28;20452;-72
2022/04/02 11:28:17;;;;;;;8.07;5.13;;;6.00;99.90;;;;;;5031687;28;20453;-72
2022/04/02 11:30:48;;;;;;;6.10;2.87;;;6.10;99.90;;;;;;5027418;28;20745;-72
2022/04/02 11:33:17;;;;;;;2.80;2.30;;;6.10;99.90;;;;;;5032531;28;21082;-72
2022/04/02 11:35:47;;;;;;;8.73;3.27;;;6.30;99.90;;;;;;5032361;28;20456;-72
2022/04/02 11:38:29;;;;;;;5.80;2.97;;;6.00;99.90;;;;;;5032399;28;20462;-72
2022/04/02 11:41:16;;;;;;;3.47;1.73;;;6.00;99.90;;;;;;5031480;28;20466;-71
2022/04/02 11:43:45;;;;;;;2.50;1.40;;;5.80;99.90;;;;;;5023611;28;20438;-72
2022/04/02 11:46:13;;;;;;;1.80;1.20;;;5.80;99.90;;;;;;5031247;28;20571;-72
2022/04/02 11:48:53;;;;;;;1.70;1.40;;;5.60;99.90;;;;;;5031860;28;20470;-74
2022/04/02 11:51:22;;;;;;;1.73;1.63;;;5.30;99.90;;;;;;5031444;28;20484;-72
2022/04/02 11:53:52;;;;;;;2.83;2.10;;;5.30;99.90;;;;;;5027952;28;20466;-72
2022/04/02 11:56:29;;;;;;;2.40;1.57;;;5.60;99.90;;;;;;5035330;28;20498;-73
2022/04/02 11:58:58;;;;;;;3.57;2.60;;;5.50;99.90;;;;;;5026182;28;21036;-73
2022/04/02 12:01:25;;;;;;;1.83;1.70;;;5.80;99.90;;;;;;5022058;28;21311;-73
2022/04/02 12:04:09;;;;;;;2.90;1.80;;;5.50;99.90;;;;;;5033489;28;21249;-73
2022/04/02 12:06:37;;;;;;;2.33;2.03;;;5.40;99.90;;;;;;5027863;28;20456;-73
2022/04/02 12:09:22;;;;;;;3.83;1.67;;;5.60;99.90;;;;;;5025029;28;20451;-75
2022/04/02 12:11:52;;;;;;;1.83;1.73;;;5.60;99.90;;;;;;5025532;28;20928;-73
2022/04/02 12:14:30;;;;;;;2.27;2.07;;;5.60;99.90;;;;;;5029120;28;20459;-74
2022/04/02 12:17:01;;;;;;;4.07;2.67;;;5.90;99.90;;;;;;5024547;28;20443;-73
2022/04/02 12:19:43;;;;;;;4.30;2.10;;;6.00;99.90;;;;;;5023911;28;20485;-73
2022/04/02 12:22:21;;;;;;;5.03;2.47;;;6.20;99.90;;;;;;5031983;28;20430;-73
2022/04/02 12:24:49;;;;;;;6.73;2.33;;;6.10;99.90;;;;;;5031123;28;20514;-74
2022/04/02 12:27:22;;;;;;;1.63;1.53;;;6.00;99.90;;;;;;5035610;28;20444;-74
2022/04/02 12:29:51;;;;;;;19.23;2.23;;;6.00;99.90;;;;;;5025016;28;21045;-73
2022/04/02 12:32:29;;;;;;;4.23;2.53;;;6.20;99.90;;;;;;5026720;28;20859;-74
2022/04/02 12:34:58;;;;;;;4.13;1.80;;;6.00;99.90;;;;;;5036693;28;20441;-75
2022/04/02 12:37:29;;;;;;;2.10;1.90;;;6.10;99.90;;;;;;5032292;28;21055;-73
2022/04/02 12:39:56;;;;;;;4.77;2.50;;;6.30;99.90;;;;;;5034671;28;20435;-73
2022/04/02 12:42:38;;;;;;;3.37;1.97;;;6.50;99.90;;;;;;5037632;28;21177;-74
2022/04/02 12:45:07;;;;;;;3.00;2.50;;;6.70;99.90;;;;;;5031327;28;20480;-73
2022/04/02 12:47:34;;;;;;;6.50;2.30;;;6.90;99.90;;;;;;5028798;28;20560;-75
2022/04/02 12:50:11;;;;;;;2.20;1.90;;;6.80;99.90;;;;;;5027022;28;20521;-74
2022/04/02 12:52:45;;;;;;;3.40;2.73;;;6.60;99.90;;;;;;5032601;28;20459;-73
2022/04/02 12:55:17;;;;;;;11.43;2.57;;;6.70;99.90;;;;;;5023002;28;20604;-73
2022/04/02 12:57:57;;;;;;;3.67;2.90;;;6.90;99.90;;;;;;5030745;28;20586;-74
2022/04/02 13:00:28;;;;;;;15.13;2.40;;;7.30;99.90;;;;;;5027016;28;20443;-74
2022/04/02 13:02:57;;;;;;;4.10;2.67;;;7.80;99.90;;;;;;5025589;28;20832;-74
2022/04/02 13:05:26;;;;;;;2.93;2.23;;;8.00;99.90;;;;;;5030263;28;20904;-75
2022/04/02 13:08:04;;;;;;;3.27;3.00;;;7.80;99.90;;;;;;5030451;28;21231;-75
2022/04/02 13:10:31;;;;;;;2.00;1.90;;;8.40;99.90;;;;;;5028906;28;20477;-74
2022/04/02 13:13:03;;;;;;;3.23;2.30;;;9.90;99.90;;;;;;5026927;28;20543;-73
2022/04/02 13:15:31;;;;;;;1.50;1.30;;;10.30;99.90;;;;;;5034591;28;20469;-73
2022/04/02 13:20:45;;;;;;;1.40;1.30;;;9.20;99.20;;;;;;5026331;28;20463;-73
2022/04/02 13:23:46;;;;;;;1.97;1.70;;;8.60;98.10;;;;;;5028462;28;20456;-74
2022/04/02 13:26:14;;;;;;;4.10;2.00;;;7.90;99.90;;;;;;5037651;28;20464;-75
2022/04/02 13:29:00;;;;;;;1.67;1.57;;;9.00;99.90;;;;;;5026327;28;20496;-76
2022/04/02 13:31:35;;;;;;;5.70;1.93;;;10.20;99.00;;;;;;5026057;28;20558;-74